Gunnison, CO

2:43 PM MDT on August 04, 2015 (GMT -0600)
West Ruby Ave Weather | | Change Station
CLOSE
Current Station
Personal Weather Station
Location: Gunnison, CO
Elevation: 7713 ft
Nearby Weather Stations

Elev 7713 ft 38.55 °N, 106.93 °W | Updated 1 second ago

Clear
Clear
77.0 °F
Feels Like 77 °F
N
4.0
Wind Variable Wind from WSW
Gusts 9.0 mph

Today
High -- | Low -- °F
--% Chance of Precip.
Yesterday
High -- | Low -- °F
Precip. -- in
6:12 AM 8:15 PM
Waning Gibbous, 74% visible
Pressure 30.34 in
Visibility 10.0 miles
Clouds Clear
Heat Index 77 °F
Dew Point 40 °F
Humidity 27%
Rainfall 0.00 in
Snow Depth Not available.
UV 0.0 out of 12
Pollen 7.10 out of 12
Air Quality Not available.
Flu Activity Not available.
METAR KGUC 042035Z AUTO 26014G21KT 10SM CLR 26/02 A3034 RMK AO1

More Conditions Fewer Conditions

Pressure 30.34 in
Visibility 10.0 miles
Clouds Clear
Heat Index 77 °F
Dew Point 40 °F
Humidity 27%
Rainfall 0.00 in
Snow Depth Not available.
UV 0.0 out of 12
Pollen 7.10 out of 12
Air Quality Not available.
Flu Activity Not available.
METAR KGUC 042035Z AUTO 26014G21KT 10SM CLR 26/02 A3034 RMK AO1

More Conditions Fewer Conditions

10-Day Weather Forecast

×

Almanac

Astronomy

Aug. 04, 2015 Rise Set
Actual Time
Civil Twilight
Nautical Twilight
Astronomical Twilight
Moon
Length of Visible Light
Length of Day
Tomorrow will be .
, % of the Moon is Illuminated

Today's Extremes

State Highs State Lows

Community

WunderPhotos

Upload Photos

1,843,974 photos uploaded!

WunderBlogs® & News

Nearby

Air Quality

  Air Quality AQ Index Pollutant
Not available.

Snow Depth

Station Depth Elevation

Earthquake Activity

City Distance Mag. Time & Date
Minimum magnitude displayed is 2.5.

Coastal Water Temperatures

Place Temperature

Stations

Nearby Weather Stations

Station Location Temp. Windchill Dew Point Humidity Wind Precip. Elev Updated Type